sensor_id;sensor_type;location;lat;lon;timestamp;temperature;humidity
45868;DHT22;31582;45.490;7.860;2023-04-03T05:20:29;12.20;38.20
45868;DHT22;31582;45.490;7.860;2023-04-03T05:22:56;12.20;38.30
45868;DHT22;31582;45.490;7.860;2023-04-03T05:25:23;12.20;38.70
45868;DHT22;31582;45.490;7.860;2023-04-03T05:27:52;12.10;38.60
45868;DHT22;31582;45.490;7.860;2023-04-03T05:30:19;12.10;38.70
45868;DHT22;31582;45.490;7.860;2023-04-03T05:32:46;12.10;38.60
45868;DHT22;31582;45.490;7.860;2023-04-03T05:35:14;12.10;38.50
45868;DHT22;31582;45.490;7.860;2023-04-03T05:37:41;12.20;38.50
45868;DHT22;31582;45.490;7.860;2023-04-03T05:40:09;12.10;38.60
45868;DHT22;31582;45.490;7.860;2023-04-03T05:42:36;12.10;38.30
45868;DHT22;31582;45.490;7.860;2023-04-03T05:45:03;12.20;38.40
45868;DHT22;31582;45.490;7.860;2023-04-03T05:47:30;12.10;38.40
45868;DHT22;31582;45.490;7.860;2023-04-03T05:49:57;12.20;38.20
45868;DHT22;31582;45.490;7.860;2023-04-03T05:52:30;12.20;38.00
45868;DHT22;31582;45.490;7.860;2023-04-03T05:54:57;12.30;38.10
45868;DHT22;31582;45.490;7.860;2023-04-03T05:57:24;12.30;38.10
45868;DHT22;31582;45.490;7.860;2023-04-03T05:59:51;12.30;38.60
45868;DHT22;31582;45.490;7.860;2023-04-03T06:02:21;12.20;38.00
45868;DHT22;31582;45.490;7.860;2023-04-03T06:04:48;12.30;38.20
45868;DHT22;31582;45.490;7.860;2023-04-03T06:07:24;12.30;38.10
45868;DHT22;31582;45.490;7.860;2023-04-03T06:09:54;12.30;38.50
45868;DHT22;31582;45.490;7.860;2023-04-03T06:12:22;12.20;38.70
45868;DHT22;31582;45.490;7.860;2023-04-03T06:14:49;12.30;38.10
45868;DHT22;31582;45.490;7.860;2023-04-03T06:17:17;12.30;38.10
45868;DHT22;31582;45.490;7.860;2023-04-03T06:19:45;12.40;37.90
45868;DHT22;31582;45.490;7.860;2023-04-03T06:22:13;12.40;38.30
45868;DHT22;31582;45.490;7.860;2023-04-03T06:24:40;12.40;38.00
45868;DHT22;31582;45.490;7.860;2023-04-03T06:27:10;12.50;37.60
45868;DHT22;31582;45.490;7.860;2023-04-03T06:29:37;12.60;37.40
45868;DHT22;31582;45.490;7.860;2023-04-03T06:32:04;12.60;37.30
45868;DHT22;31582;45.490;7.860;2023-04-03T06:34:32;12.70;37.00
45868;DHT22;31582;45.490;7.860;2023-04-03T06:36:59;12.80;36.60
45868;DHT22;31582;45.490;7.860;2023-04-03T06:39:26;12.90;36.70
45868;DHT22;31582;45.490;7.860;2023-04-03T06:41:53;12.90;36.10
45868;DHT22;31582;45.490;7.860;2023-04-03T06:44:21;13.00;36.00
45868;DHT22;31582;45.490;7.860;2023-04-03T06:46:47;13.00;36.70
45868;DHT22;31582;45.490;7.860;2023-04-03T06:49:15;13.10;36.00
45868;DHT22;31582;45.490;7.860;2023-04-03T06:51:42;13.20;35.80
45868;DHT22;31582;45.490;7.860;2023-04-03T06:54:08;13.30;36.20
45868;DHT22;31582;45.490;7.860;2023-04-03T06:56:36;13.30;36.40
45868;DHT22;31582;45.490;7.860;2023-04-03T06:59:03;13.30;36.40
45868;DHT22;31582;45.490;7.860;2023-04-03T07:01:30;13.30;36.20
45868;DHT22;31582;45.490;7.860;2023-04-03T07:03:57;13.40;36.30
45868;DHT22;31582;45.490;7.860;2023-04-03T07:06:24;13.50;35.50
45868;DHT22;31582;45.490;7.860;2023-04-03T07:08:55;13.70;35.30
45868;DHT22;31582;45.490;7.860;2023-04-03T07:11:22;13.80;34.70
45868;DHT22;31582;45.490;7.860;2023-04-03T07:13:49;13.90;33.80
45868;DHT22;31582;45.490;7.860;2023-04-03T07:16:16;14.00;33.90
45868;DHT22;31582;45.490;7.860;2023-04-03T07:18:44;14.10;33.60
45868;DHT22;31582;45.490;7.860;2023-04-03T07:21:12;14.20;33.60
45868;DHT22;31582;45.490;7.860;2023-04-03T07:23:39;14.30;34.10
45868;DHT22;31582;45.490;7.860;2023-04-03T07:26:06;14.40;34.00
45868;DHT22;31582;45.490;7.860;2023-04-03T07:28:34;14.50;33.20
45868;DHT22;31582;45.490;7.860;2023-04-03T07:31:04;14.50;33.70
45868;DHT22;31582;45.490;7.860;2023-04-03T07:33:32;14.60;33.70
45868;DHT22;31582;45.490;7.860;2023-04-03T07:36:00;14.70;33.00
45868;DHT22;31582;45.490;7.860;2023-04-03T07:38:27;14.80;33.20
45868;DHT22;31582;45.490;7.860;2023-04-03T07:40:54;14.80;34.00
45868;DHT22;31582;45.490;7.860;2023-04-03T07:43:22;14.80;33.00
45868;DHT22;31582;45.490;7.860;2023-04-03T07:45:51;14.90;33.30
45868;DHT22;31582;45.490;7.860;2023-04-03T07:48:20;15.00;33.40
45868;DHT22;31582;45.490;7.860;2023-04-03T07:50:48;15.10;32.70
45868;DHT22;31582;45.490;7.860;2023-04-03T07:53:15;15.20;32.90
45868;DHT22;31582;45.490;7.860;2023-04-03T07:55:46;15.30;31.80
45868;DHT22;31582;45.490;7.860;2023-04-03T07:58:16;15.30;31.30
45868;DHT22;31582;45.490;7.860;2023-04-03T08:00:43;15.50;32.40
45868;DHT22;31582;45.490;7.860;2023-04-03T08:03:11;15.50;32.20
45868;DHT22;31582;45.490;7.860;2023-04-03T08:05:43;15.70;31.90
45868;DHT22;31582;45.490;7.860;2023-04-03T08:08:12;15.90;31.30
45868;DHT22;31582;45.490;7.860;2023-04-03T08:10:42;16.00;31.60
45868;DHT22;31582;45.490;7.860;2023-04-03T08:13:09;16.10;30.50
45868;DHT22;31582;45.490;7.860;2023-04-03T08:15:36;16.10;30.70
45868;DHT22;31582;45.490;7.860;2023-04-03T08:18:04;16.20;30.70
45868;DHT22;31582;45.490;7.860;2023-04-03T08:20:31;16.30;30.70
45868;DHT22;31582;45.490;7.860;2023-04-03T08:22:58;16.50;30.60
45868;DHT22;31582;45.490;7.860;2023-04-03T08:25:24;16.60;30.70
45868;DHT22;31582;45.490;7.860;2023-04-03T08:27:51;16.80;29.30
45868;DHT22;31582;45.490;7.860;2023-04-03T08:30:18;16.90;29.50
45868;DHT22;31582;45.490;7.860;2023-04-03T08:32:45;17.00;29.80
45868;DHT22;31582;45.490;7.860;2023-04-03T08:35:12;17.10;29.20
45868;DHT22;31582;45.490;7.860;2023-04-03T08:37:39;17.20;29.50
45868;DHT22;31582;45.490;7.860;2023-04-03T08:40:14;17.30;29.20
45868;DHT22;31582;45.490;7.860;2023-04-03T08:48:03;17.50;29.90
45868;DHT22;31582;45.490;7.860;2023-04-03T08:50:40;17.50;28.70
45868;DHT22;31582;45.490;7.860;2023-04-03T08:53:16;17.60;28.60
45868;DHT22;31582;45.490;7.860;2023-04-03T08:55:50;17.70;28.70
45868;DHT22;31582;45.490;7.860;2023-04-03T08:58:25;17.80;28.50
45868;DHT22;31582;45.490;7.860;2023-04-03T09:01:03;17.90;28.60
45868;DHT22;31582;45.490;7.860;2023-04-03T09:03:34;18.20;28.10
45868;DHT22;31582;45.490;7.860;2023-04-03T09:06:21;18.30;27.90
45868;DHT22;31582;45.490;7.860;2023-04-03T09:09:14;18.40;28.20
45868;DHT22;31582;45.490;7.860;2023-04-03T09:12:17;18.50;28.50
45868;DHT22;31582;45.490;7.860;2023-04-03T09:20:19;18.60;28.80
45868;DHT22;31582;45.490;7.860;2023-04-03T09:22:48;18.70;27.20
45868;DHT22;31582;45.490;7.860;2023-04-03T09:25:32;18.80;27.20
45868;DHT22;31582;45.490;7.860;2023-04-03T09:28:00;18.90;27.20
45868;DHT22;31582;45.490;7.860;2023-04-03T09:30:37;19.00;26.20
45868;DHT22;31582;45.490;7.860;2023-04-03T09:33:05;19.00;26.90
45868;DHT22;31582;45.490;7.860;2023-04-03T09:35:36;19.10;26.90
45868;DHT22;31582;45.490;7.860;2023-04-03T09:38:15;19.20;26.00
45868;DHT22;31582;45.490;7.860;2023-04-03T09:40:48;19.40;25.70
45868;DHT22;31582;45.490;7.860;2023-04-03T09:43:23;19.60;26.40
45868;DHT22;31582;45.490;7.860;2023-04-03T09:45:51;19.70;26.70
45868;DHT22;31582;45.490;7.860;2023-04-03T09:48:21;19.80;26.80
45868;DHT22;31582;45.490;7.860;2023-04-03T09:50:56;19.90;26.00
45868;DHT22;31582;45.490;7.860;2023-04-03T09:56:25;20.00;26.20
45868;DHT22;31582;45.490;7.860;2023-04-03T10:01:34;20.20;24.70
45868;DHT22;31582;45.490;7.860;2023-04-03T10:04:17;20.20;25.40
45868;DHT22;31582;45.490;7.860;2023-04-03T10:06:48;20.30;24.40
45868;DHT22;31582;45.490;7.860;2023-04-03T10:09:25;20.10;24.40
45868;DHT22;31582;45.490;7.860;2023-04-03T10:12:05;20.10;27.20
45868;DHT22;31582;45.490;7.860;2023-04-03T10:14:38;20.40;24.70
45868;DHT22;31582;45.490;7.860;2023-04-03T10:17:18;20.50;25.60
45868;DHT22;31582;45.490;7.860;2023-04-03T10:28:05;21.10;24.90
45868;DHT22;31582;45.490;7.860;2023-04-03T10:34:06;21.50;23.80
45868;DHT22;31582;45.490;7.860;2023-04-03T10:36:50;21.60;24.90
45868;DHT22;31582;45.490;7.860;2023-04-03T10:39:50;21.60;24.20
45868;DHT22;31582;45.490;7.860;2023-04-03T10:45:21;21.90;24.10
45868;DHT22;31582;45.490;7.860;2023-04-03T10:51:10;22.20;23.80
45868;DHT22;31582;45.490;7.860;2023-04-03T10:53:43;22.30;24.50
45868;DHT22;31582;45.490;7.860;2023-04-03T10:58:49;22.40;23.90
45868;DHT22;31582;45.490;7.860;2023-04-03T11:01:29;22.30;24.20
45868;DHT22;31582;45.490;7.860;2023-04-03T11:03:59;22.20;25.60
45868;DHT22;31582;45.490;7.860;2023-04-03T11:06:34;22.00;25.00
45868;DHT22;31582;45.490;7.860;2023-04-03T11:09:13;22.00;25.60
45868;DHT22;31582;45.490;7.860;2023-04-03T11:11:44;22.00;26.00
45868;DHT22;31582;45.490;7.860;2023-04-03T11:22:27;22.30;24.40
45868;DHT22;31582;45.490;7.860;2023-04-03T11:27:38;22.00;25.20
45868;DHT22;31582;45.490;7.860;2023-04-03T11:30:14;21.80;25.70
45868;DHT22;31582;45.490;7.860;2023-04-03T11:35:30;21.50;25.30
45868;DHT22;31582;45.490;7.860;2023-04-03T11:37:59;21.50;25.90
45868;DHT22;31582;45.490;7.860;2023-04-03T11:40:31;21.50;25.60
45868;DHT22;31582;45.490;7.860;2023-04-03T11:50:56;21.50;26.10
45868;DHT22;31582;45.490;7.860;2023-04-03T11:53:40;21.60;25.20
45868;DHT22;31582;45.490;7.860;2023-04-03T11:59:15;21.90;26.30
45868;DHT22;31582;45.490;7.860;2023-04-03T12:01:52;22.00;26.30
45868;DHT22;31582;45.490;7.860;2023-04-03T12:04:23;21.90;24.90
45868;DHT22;31582;45.490;7.860;2023-04-03T12:06:58;21.90;26.30
45868;DHT22;31582;45.490;7.860;2023-04-03T12:12:24;22.40;26.10
45868;DHT22;31582;45.490;7.860;2023-04-03T12:14:53;22.40;25.30
45868;DHT22;31582;45.490;7.860;2023-04-03T12:17:25;22.20;25.20
45868;DHT22;31582;45.490;7.860;2023-04-03T12:19:53;22.10;25.20
45868;DHT22;31582;45.490;7.860;2023-04-03T12:22:21;22.10;25.60
45868;DHT22;31582;45.490;7.860;2023-04-03T12:24:52;22.20;24.50
45868;DHT22;31582;45.490;7.860;2023-04-03T12:27:28;22.50;25.40
45868;DHT22;31582;45.490;7.860;2023-04-03T12:33:04;22.40;24.40
45868;DHT22;31582;45.490;7.860;2023-04-03T12:41:36;22.70;26.60
45868;DHT22;31582;45.490;7.860;2023-04-03T12:46:52;23.30;25.40
45868;DHT22;31582;45.490;7.860;2023-04-03T12:51:55;23.20;26.00
45868;DHT22;31582;45.490;7.860;2023-04-03T12:54:35;23.20;26.30
45868;DHT22;31582;45.490;7.860;2023-04-03T12:57:16;23.20;25.60
45868;DHT22;31582;45.490;7.860;2023-04-03T12:59:44;23.20;26.10
45868;DHT22;31582;45.490;7.860;2023-04-03T13:02:32;23.20;25.40
45868;DHT22;31582;45.490;7.860;2023-04-03T13:05:09;23.20;26.30
45868;DHT22;31582;45.490;7.860;2023-04-03T13:07:41;22.90;25.50
45868;DHT22;31582;45.490;7.860;2023-04-03T13:15:29;21.90;25.70
45868;DHT22;31582;45.490;7.860;2023-04-03T13:17:57;21.70;26.30
45868;DHT22;31582;45.490;7.860;2023-04-03T13:20:30;21.50;27.20
45868;DHT22;31582;45.490;7.860;2023-04-03T13:23:05;21.50;27.70
45868;DHT22;31582;45.490;7.860;2023-04-03T13:25:35;21.50;27.40
45868;DHT22;31582;45.490;7.860;2023-04-03T13:28:04;21.70;27.50
45868;DHT22;31582;45.490;7.860;2023-04-03T13:30:41;21.90;27.30
45868;DHT22;31582;45.490;7.860;2023-04-03T13:33:23;22.20;26.80
45868;DHT22;31582;45.490;7.860;2023-04-03T13:36:10;22.10;27.00
45868;DHT22;31582;45.490;7.860;2023-04-03T13:38:37;22.20;26.60
45868;DHT22;31582;45.490;7.860;2023-04-03T13:41:23;22.20;26.90
45868;DHT22;31582;45.490;7.860;2023-04-03T13:43:51;22.30;26.90
45868;DHT22;31582;45.490;7.860;2023-04-03T13:46:27;22.50;26.70
45868;DHT22;31582;45.490;7.860;2023-04-03T13:48:55;22.50;26.30
45868;DHT22;31582;45.490;7.860;2023-04-03T13:51:27;22.90;26.80
45868;DHT22;31582;45.490;7.860;2023-04-03T13:54:00;22.90;24.90
45868;DHT22;31582;45.490;7.860;2023-04-03T13:56:36;22.90;24.70
45868;DHT22;31582;45.490;7.860;2023-04-03T14:01:56;23.10;25.40
45868;DHT22;31582;45.490;7.860;2023-04-03T14:07:12;22.50;24.50
45868;DHT22;31582;45.490;7.860;2023-04-03T14:09:39;22.30;25.90
45868;DHT22;31582;45.490;7.860;2023-04-03T14:12:25;22.10;25.10
45868;DHT22;31582;45.490;7.860;2023-04-03T14:14:59;21.80;25.80
45868;DHT22;31582;45.490;7.860;2023-04-03T14:17:27;21.70;26.30
45868;DHT22;31582;45.490;7.860;2023-04-03T14:19:55;21.50;26.90
45868;DHT22;31582;45.490;7.860;2023-04-03T14:22:28;21.40;26.50
45868;DHT22;31582;45.490;7.860;2023-04-03T14:24:57;21.40;27.00
45868;DHT22;31582;45.490;7.860;2023-04-03T14:27:28;21.30;25.90
45868;DHT22;31582;45.490;7.860;2023-04-03T14:29:56;20.90;24.20
45868;DHT22;31582;45.490;7.860;2023-04-03T14:32:24;20.60;24.90
45868;DHT22;31582;45.490;7.860;2023-04-03T14:34:52;20.30;25.20
45868;DHT22;31582;45.490;7.860;2023-04-03T14:37:22;20.10;25.20
45868;DHT22;31582;45.490;7.860;2023-04-03T14:39:50;19.80;25.60
45868;DHT22;31582;45.490;7.860;2023-04-03T14:42:22;19.70;26.30
45868;DHT22;31582;45.490;7.860;2023-04-03T14:44:49;19.70;26.20
45868;DHT22;31582;45.490;7.860;2023-04-03T14:47:19;19.80;28.00
45868;DHT22;31582;45.490;7.860;2023-04-03T14:49:56;19.80;28.70
45868;DHT22;31582;45.490;7.860;2023-04-03T14:52:32;19.80;28.10
45868;DHT22;31582;45.490;7.860;2023-04-03T14:55:01;19.40;28.30
45868;DHT22;31582;45.490;7.860;2023-04-03T14:57:30;19.10;29.70
45868;DHT22;31582;45.490;7.860;2023-04-03T14:59:58;18.90;31.50
45868;DHT22;31582;45.490;7.860;2023-04-03T15:02:37;18.70;32.80
45868;DHT22;31582;45.490;7.860;2023-04-03T15:05:08;18.60;35.40
45868;DHT22;31582;45.490;7.860;2023-04-03T15:07:39;18.70;32.00
45868;DHT22;31582;45.490;7.860;2023-04-03T15:10:19;18.70;32.70
45868;DHT22;31582;45.490;7.860;2023-04-03T15:12:48;18.70;32.00
45868;DHT22;31582;45.490;7.860;2023-04-03T15:15:17;18.80;34.40
45868;DHT22;31582;45.490;7.860;2023-04-03T15:17:45;18.90;35.20
45868;DHT22;31582;45.490;7.860;2023-04-03T15:20:18;18.90;35.60
45868;DHT22;31582;45.490;7.860;2023-04-03T15:22:46;19.20;35.10
45868;DHT22;31582;45.490;7.860;2023-04-03T15:25:13;19.60;32.90
45868;DHT22;31582;45.490;7.860;2023-04-03T15:27:40;20.00;32.20
45868;DHT22;31582;45.490;7.860;2023-04-03T15:30:12;20.20;31.60
45868;DHT22;31582;45.490;7.860;2023-04-03T15:32:40;20.30;31.00
45868;DHT22;31582;45.490;7.860;2023-04-03T15:35:07;20.10;28.60
45868;DHT22;31582;45.490;7.860;2023-04-03T15:37:34;19.80;27.00
45868;DHT22;31582;45.490;7.860;2023-04-03T15:40:02;19.50;28.00
45868;DHT22;31582;45.490;7.860;2023-04-03T15:42:29;19.20;28.00
45868;DHT22;31582;45.490;7.860;2023-04-03T15:44:56;18.60;28.00
45868;DHT22;31582;45.490;7.860;2023-04-03T15:47:24;18.20;32.30
45868;DHT22;31582;45.490;7.860;2023-04-03T15:49:53;17.90;33.80
45868;DHT22;31582;45.490;7.860;2023-04-03T15:52:20;17.50;34.60
45868;DHT22;31582;45.490;7.860;2023-04-03T15:54:47;17.30;34.30
45868;DHT22;31582;45.490;7.860;2023-04-03T15:57:14;17.00;32.20
45868;DHT22;31582;45.490;7.860;2023-04-03T15:59:41;16.90;31.70
45868;DHT22;31582;45.490;7.860;2023-04-03T16:02:09;16.90;34.00
45868;DHT22;31582;45.490;7.860;2023-04-03T16:04:40;16.90;33.80
45868;DHT22;31582;45.490;7.860;2023-04-03T16:07:07;16.80;33.90
45868;DHT22;31582;45.490;7.860;2023-04-03T16:09:35;16.80;35.20
45868;DHT22;31582;45.490;7.860;2023-04-03T16:12:02;16.90;31.50
45868;DHT22;31582;45.490;7.860;2023-04-03T16:14:29;16.90;32.80
45868;DHT22;31582;45.490;7.860;2023-04-03T16:16:58;16.90;33.20
45868;DHT22;31582;45.490;7.860;2023-04-03T16:19:29;17.00;32.30
45868;DHT22;31582;45.490;7.860;2023-04-03T16:21:56;17.10;31.60
45868;DHT22;31582;45.490;7.860;2023-04-03T16:24:23;17.20;31.20
45868;DHT22;31582;45.490;7.860;2023-04-03T16:26:50;17.20;31.40
45868;DHT22;31582;45.490;7.860;2023-04-03T16:29:19;17.30;32.30
45868;DHT22;31582;45.490;7.860;2023-04-03T16:31:49;17.30;33.00
45868;DHT22;31582;45.490;7.860;2023-04-03T16:34:16;17.30;32.60
45868;DHT22;31582;45.490;7.860;2023-04-03T16:36:43;17.30;32.70
45868;DHT22;31582;45.490;7.860;2023-04-03T16:39:10;17.40;32.90
45868;DHT22;31582;45.490;7.860;2023-04-03T16:41:37;17.40;32.40
45868;DHT22;31582;45.490;7.860;2023-04-03T16:44:04;17.40;33.00
45868;DHT22;31582;45.490;7.860;2023-04-03T16:46:33;17.40;32.40
45868;DHT22;31582;45.490;7.860;2023-04-03T16:49:01;17.50;32.40
45868;DHT22;31582;45.490;7.860;2023-04-03T16:51:27;17.50;32.90
45868;DHT22;31582;45.490;7.860;2023-04-03T16:53:54;17.50;34.00
45868;DHT22;31582;45.490;7.860;2023-04-03T16:56:21;17.50;34.00
45868;DHT22;31582;45.490;7.860;2023-04-03T16:58:48;17.50;34.40
45868;DHT22;31582;45.490;7.860;2023-04-03T17:01:17;17.50;35.00
45868;DHT22;31582;45.490;7.860;2023-04-03T17:03:44;17.50;35.50
45868;DHT22;31582;45.490;7.860;2023-04-03T17:06:15;17.50;34.50
45868;DHT22;31582;45.490;7.860;2023-04-03T17:08:45;17.50;33.70
45868;DHT22;31582;45.490;7.860;2023-04-03T17:11:12;17.40;33.80
45868;DHT22;31582;45.490;7.860;2023-04-03T17:13:39;17.40;34.10
45868;DHT22;31582;45.490;7.860;2023-04-03T17:16:10;17.40;33.00
45868;DHT22;31582;45.490;7.860;2023-04-03T17:18:37;17.40;32.70
45868;DHT22;31582;45.490;7.860;2023-04-03T17:21:05;17.40;32.10
45868;DHT22;31582;45.490;7.860;2023-04-03T17:23:32;17.40;32.50
45868;DHT22;31582;45.490;7.860;2023-04-03T17:26:02;17.30;31.40
45868;DHT22;31582;45.490;7.860;2023-04-03T17:28:29;17.40;30.60
45868;DHT22;31582;45.490;7.860;2023-04-03T17:30:58;17.30;31.00
45868;DHT22;31582;45.490;7.860;2023-04-03T17:33:26;17.20;32.40
45868;DHT22;31582;45.490;7.860;2023-04-03T17:35:57;17.30;38.10
45868;DHT22;31582;45.490;7.860;2023-04-03T17:38:25;17.30;40.10
45868;DHT22;31582;45.490;7.860;2023-04-03T17:40:59;17.20;41.30
45868;DHT22;31582;45.490;7.860;2023-04-03T17:43:26;17.20;42.30
45868;DHT22;31582;45.490;7.860;2023-04-03T17:46:02;17.10;42.80
45868;DHT22;31582;45.490;7.860;2023-04-03T17:48:31;17.00;44.60
45868;DHT22;31582;45.490;7.860;2023-04-03T17:51:02;16.90;43.80
45868;DHT22;31582;45.490;7.860;2023-04-03T17:53:29;16.80;44.20
45868;DHT22;31582;45.490;7.860;2023-04-03T17:55:56;16.80;44.70
45868;DHT22;31582;45.490;7.860;2023-04-03T17:58:23;16.70;45.50
45868;DHT22;31582;45.490;7.860;2023-04-03T18:00:50;16.70;45.60
45868;DHT22;31582;45.490;7.860;2023-04-03T18:03:17;16.60;46.00
45868;DHT22;31582;45.490;7.860;2023-04-03T18:05:44;16.60;46.70
45868;DHT22;31582;45.490;7.860;2023-04-03T18:08:11;16.50;47.20
45868;DHT22;31582;45.490;7.860;2023-04-03T18:10:39;16.40;47.40
45868;DHT22;31582;45.490;7.860;2023-04-03T18:13:07;16.40;48.40
45868;DHT22;31582;45.490;7.860;2023-04-03T18:15:34;16.30;49.10
45868;DHT22;31582;45.490;7.860;2023-04-03T18:18:01;16.10;49.50
45868;DHT22;31582;45.490;7.860;2023-04-03T18:20:28;16.00;49.70
45868;DHT22;31582;45.490;7.860;2023-04-03T18:22:55;15.80;49.50
45868;DHT22;31582;45.490;7.860;2023-04-03T18:25:22;15.80;49.10
45868;DHT22;31582;45.490;7.860;2023-04-03T18:27:49;15.60;49.60
45868;DHT22;31582;45.490;7.860;2023-04-03T18:30:17;15.40;49.40
45868;DHT22;31582;45.490;7.860;2023-04-03T18:32:44;15.30;49.90
45868;DHT22;31582;45.490;7.860;2023-04-03T18:35:11;15.20;50.00
45868;DHT22;31582;45.490;7.860;2023-04-03T18:37:38;15.20;50.40
45868;DHT22;31582;45.490;7.860;2023-04-03T18:40:05;15.10;50.80
45868;DHT22;31582;45.490;7.860;2023-04-03T18:42:32;15.00;51.00
45868;DHT22;31582;45.490;7.860;2023-04-03T18:45:01;15.00;51.40
45868;DHT22;31582;45.490;7.860;2023-04-03T18:47:31;14.90;51.30
45868;DHT22;31582;45.490;7.860;2023-04-03T18:49:58;14.80;50.90
45868;DHT22;31582;45.490;7.860;2023-04-03T18:52:25;14.70;50.80
45868;DHT22;31582;45.490;7.860;2023-04-03T18:54:52;14.60;50.70
45868;DHT22;31582;45.490;7.860;2023-04-03T18:57:19;14.60;51.10
45868;DHT22;31582;45.490;7.860;2023-04-03T18:59:46;14.60;51.50
45868;DHT22;31582;45.490;7.860;2023-04-03T19:02:13;14.50;51.20
45868;DHT22;31582;45.490;7.860;2023-04-03T19:04:42;14.50;51.40
45868;DHT22;31582;45.490;7.860;2023-04-03T19:07:09;14.40;51.70
45868;DHT22;31582;45.490;7.860;2023-04-03T19:09:36;14.50;51.80
45868;DHT22;31582;45.490;7.860;2023-04-03T19:12:06;14.40;51.70
45868;DHT22;31582;45.490;7.860;2023-04-03T19:14:33;14.40;52.00
45868;DHT22;31582;45.490;7.860;2023-04-03T19:17:00;14.30;52.20
45868;DHT22;31582;45.490;7.860;2023-04-03T19:19:29;14.30;52.50
45868;DHT22;31582;45.490;7.860;2023-04-03T19:21:56;14.20;52.50
45868;DHT22;31582;45.490;7.860;2023-04-03T19:24:23;14.20;53.90
45868;DHT22;31582;45.490;7.860;2023-04-03T19:26:50;14.10;53.10
45868;DHT22;31582;45.490;7.860;2023-04-03T19:29:17;14.10;52.70
45868;DHT22;31582;45.490;7.860;2023-04-03T19:31:43;14.00;52.70
45868;DHT22;31582;45.490;7.860;2023-04-03T19:34:10;14.00;52.60
45868;DHT22;31582;45.490;7.860;2023-04-03T19:36:38;14.00;52.30
45868;DHT22;31582;45.490;7.860;2023-04-03T19:39:05;13.90;52.50
45868;DHT22;31582;45.490;7.860;2023-04-03T19:41:34;13.80;52.80
45868;DHT22;31582;45.490;7.860;2023-04-03T19:44:04;13.70;53.00
45868;DHT22;31582;45.490;7.860;2023-04-03T19:46:33;13.70;53.50
45868;DHT22;31582;45.490;7.860;2023-04-03T19:49:00;13.60;54.00
45868;DHT22;31582;45.490;7.860;2023-04-03T19:51:29;13.60;54.70
45868;DHT22;31582;45.490;7.860;2023-04-03T19:53:57;13.50;54.90
45868;DHT22;31582;45.490;7.860;2023-04-03T19:56:24;13.50;55.70
45868;DHT22;31582;45.490;7.860;2023-04-03T19:58:52;13.50;56.40
45868;DHT22;31582;45.490;7.860;2023-04-03T20:01:25;13.50;56.20
45868;DHT22;31582;45.490;7.860;2023-04-03T20:03:54;13.40;56.60
45868;DHT22;31582;45.490;7.860;2023-04-03T20:06:22;13.50;56.40
45868;DHT22;31582;45.490;7.860;2023-04-03T20:08:49;13.40;56.50
45868;DHT22;31582;45.490;7.860;2023-04-03T20:11:16;13.40;56.30
45868;DHT22;31582;45.490;7.860;2023-04-03T20:13:43;13.30;56.60
45868;DHT22;31582;45.490;7.860;2023-04-03T20:16:10;13.20;56.80
45868;DHT22;31582;45.490;7.860;2023-04-03T20:18:37;13.20;57.10
45868;DHT22;31582;45.490;7.860;2023-04-03T20:21:06;13.20;56.80
45868;DHT22;31582;45.490;7.860;2023-04-03T20:23:34;13.20;56.50
45868;DHT22;31582;45.490;7.860;2023-04-03T20:26:07;13.10;56.90
45868;DHT22;31582;45.490;7.860;2023-04-03T20:28:39;13.10;56.90
45868;DHT22;31582;45.490;7.860;2023-04-03T20:31:06;13.20;54.80
45868;DHT22;31582;45.490;7.860;2023-04-03T20:33:34;13.10;54.10
45868;DHT22;31582;45.490;7.860;2023-04-03T20:36:03;13.10;52.60
45868;DHT22;31582;45.490;7.860;2023-04-03T20:38:30;13.00;52.50
45868;DHT22;31582;45.490;7.860;2023-04-03T20:40:57;13.00;51.80
45868;DHT22;31582;45.490;7.860;2023-04-03T20:43:26;13.00;51.90
45868;DHT22;31582;45.490;7.860;2023-04-03T20:45:53;12.90;52.30
45868;DHT22;31582;45.490;7.860;2023-04-03T20:48:21;12.90;52.10
45868;DHT22;31582;45.490;7.860;2023-04-03T20:50:48;12.90;52.10
45868;DHT22;31582;45.490;7.860;2023-04-03T20:53:15;12.90;51.90
45868;DHT22;31582;45.490;7.860;2023-04-03T20:55:57;12.90;50.20
45868;DHT22;31582;45.490;7.860;2023-04-03T20:58:27;12.80;50.70
45868;DHT22;31582;45.490;7.860;2023-04-03T21:00:56;12.70;51.20
45868;DHT22;31582;45.490;7.860;2023-04-03T21:03:23;12.80;51.90
45868;DHT22;31582;45.490;7.860;2023-04-03T21:20:36;12.60;50.30
45868;DHT22;31582;45.490;7.860;2023-04-03T21:23:04;12.60;49.80
45868;DHT22;31582;45.490;7.860;2023-04-03T21:25:32;12.60;50.60
45868;DHT22;31582;45.490;7.860;2023-04-03T21:27:59;12.50;50.10
45868;DHT22;31582;45.490;7.860;2023-04-03T21:30:26;12.50;50.40
45868;DHT22;31582;45.490;7.860;2023-04-03T21:32:53;12.50;49.30
45868;DHT22;31582;45.490;7.860;2023-04-03T21:35:19;12.50;48.80
45868;DHT22;31582;45.490;7.860;2023-04-03T21:37:46;12.40;48.00
45868;DHT22;31582;45.490;7.860;2023-04-03T21:40:13;12.40;48.20
45868;DHT22;31582;45.490;7.860;2023-04-03T21:42:40;12.40;48.10
45868;DHT22;31582;45.490;7.860;2023-04-03T21:45:08;12.30;48.10
45868;DHT22;31582;45.490;7.860;2023-04-03T21:47:35;12.30;48.20
45868;DHT22;31582;45.490;7.860;2023-04-03T21:50:04;12.30;48.40
45868;DHT22;31582;45.490;7.860;2023-04-03T21:52:31;12.30;48.60
45868;DHT22;31582;45.490;7.860;2023-04-03T21:54:58;12.20;48.60
45868;DHT22;31582;45.490;7.860;2023-04-03T21:57:25;12.20;48.80
45868;DHT22;31582;45.490;7.860;2023-04-03T21:59:52;12.20;49.00
45868;DHT22;31582;45.490;7.860;2023-04-03T22:02:22;12.20;49.20
45868;DHT22;31582;45.490;7.860;2023-04-03T22:04:49;12.20;48.90
45868;DHT22;31582;45.490;7.860;2023-04-03T22:07:15;12.20;49.30
45868;DHT22;31582;45.490;7.860;2023-04-03T22:09:42;12.20;48.40
45868;DHT22;31582;45.490;7.860;2023-04-03T22:12:09;12.20;48.60
45868;DHT22;31582;45.490;7.860;2023-04-03T22:14:37;12.20;48.60
45868;DHT22;31582;45.490;7.860;2023-04-03T22:17:05;12.10;47.40
45868;DHT22;31582;45.490;7.860;2023-04-03T22:19:32;12.00;47.40
45868;DHT22;31582;45.490;7.860;2023-04-03T22:21:59;12.00;47.00
45868;DHT22;31582;45.490;7.860;2023-04-03T22:24:28;12.10;46.80
45868;DHT22;31582;45.490;7.860;2023-04-03T22:26:56;12.00;46.70
45868;DHT22;31582;45.490;7.860;2023-04-03T22:29:22;12.00;47.00
45868;DHT22;31582;45.490;7.860;2023-04-03T22:31:49;12.00;46.40
45868;DHT22;31582;45.490;7.860;2023-04-03T22:34:16;11.90;46.60
45868;DHT22;31582;45.490;7.860;2023-04-03T22:36:43;11.90;46.40
45868;DHT22;31582;45.490;7.860;2023-04-03T22:39:10;11.90;46.40
45868;DHT22;31582;45.490;7.860;2023-04-03T22:41:38;11.90;46.20
45868;DHT22;31582;45.490;7.860;2023-04-03T22:44:05;11.90;46.40
45868;DHT22;31582;45.490;7.860;2023-04-03T22:46:32;11.90;46.10
45868;DHT22;31582;45.490;7.860;2023-04-03T22:48:59;11.80;46.20